sensor_id;sensor_type;location;lat;lon;timestamp;temperature;humidity
10042;DHT22;5061;49.068;12.058;2023-03-21T00:02:01;7.80;99.90
10042;DHT22;5061;49.068;12.058;2023-03-21T00:05:22;7.80;99.90
10042;DHT22;5061;49.068;12.058;2023-03-21T00:08:43;7.70;99.90
10042;DHT22;5061;49.068;12.058;2023-03-21T00:12:04;7.70;99.90
10042;DHT22;5061;49.068;12.058;2023-03-21T00:15:26;7.70;99.90
10042;DHT22;5061;49.068;12.058;2023-03-21T00:18:49;7.60;99.90
10042;DHT22;5061;49.068;12.058;2023-03-21T00:22:11;7.60;99.90
10042;DHT22;5061;49.068;12.058;2023-03-21T00:25:32;7.60;99.90
10042;DHT22;5061;49.068;12.058;2023-03-21T00:28:53;7.60;99.90
10042;DHT22;5061;49.068;12.058;2023-03-21T00:32:15;7.50;99.90
10042;DHT22;5061;49.068;12.058;2023-03-21T00:35:35;7.50;99.90
10042;DHT22;5061;49.068;12.058;2023-03-21T00:38:57;7.50;99.90
10042;DHT22;5061;49.068;12.058;2023-03-21T00:42:20;7.40;99.90
10042;DHT22;5061;49.068;12.058;2023-03-21T00:45:40;7.40;99.90
10042;DHT22;5061;49.068;12.058;2023-03-21T00:49:01;7.40;99.90
10042;DHT22;5061;49.068;12.058;2023-03-21T00:52:22;7.40;99.90
10042;DHT22;5061;49.068;12.058;2023-03-21T00:55:43;7.40;99.90
10042;DHT22;5061;49.068;12.058;2023-03-21T00:59:04;7.30;99.90
10042;DHT22;5061;49.068;12.058;2023-03-21T01:02:27;7.40;99.90
10042;DHT22;5061;49.068;12.058;2023-03-21T01:05:48;7.40;99.90
10042;DHT22;5061;49.068;12.058;2023-03-21T01:09:25;7.40;99.90
10042;DHT22;5061;49.068;12.058;2023-03-21T01:12:46;7.40;99.90
10042;DHT22;5061;49.068;12.058;2023-03-21T01:16:08;7.50;99.90
10042;DHT22;5061;49.068;12.058;2023-03-21T01:19:29;7.40;99.90
10042;DHT22;5061;49.068;12.058;2023-03-21T01:22:50;7.40;99.90
10042;DHT22;5061;49.068;12.058;2023-03-21T01:26:11;7.40;99.90
10042;DHT22;5061;49.068;12.058;2023-03-21T01:29:32;7.40;99.90
10042;DHT22;5061;49.068;12.058;2023-03-21T01:32:54;7.40;99.90
10042;DHT22;5061;49.068;12.058;2023-03-21T01:36:21;7.40;99.90
10042;DHT22;5061;49.068;12.058;2023-03-21T01:39:42;7.40;99.90
10042;DHT22;5061;49.068;12.058;2023-03-21T01:43:18;7.50;99.90
10042;DHT22;5061;49.068;12.058;2023-03-21T01:46:44;7.50;99.90
10042;DHT22;5061;49.068;12.058;2023-03-21T01:50:08;7.50;99.90
10042;DHT22;5061;49.068;12.058;2023-03-21T01:53:30;7.50;99.90
10042;DHT22;5061;49.068;12.058;2023-03-21T01:56:55;7.50;99.90
10042;DHT22;5061;49.068;12.058;2023-03-21T02:00:16;7.50;99.90
10042;DHT22;5061;49.068;12.058;2023-03-21T02:03:39;7.50;99.90
10042;DHT22;5061;49.068;12.058;2023-03-21T02:07:13;7.50;99.90
10042;DHT22;5061;49.068;12.058;2023-03-21T02:10:37;7.50;99.90
10042;DHT22;5061;49.068;12.058;2023-03-21T02:13:58;7.50;99.90
10042;DHT22;5061;49.068;12.058;2023-03-21T02:17:39;7.50;99.90
10042;DHT22;5061;49.068;12.058;2023-03-21T02:28:25;7.50;99.90
10042;DHT22;5061;49.068;12.058;2023-03-21T02:32:00;7.50;99.90
10042;DHT22;5061;49.068;12.058;2023-03-21T02:35:52;7.50;99.90
10042;DHT22;5061;49.068;12.058;2023-03-21T02:46:35;7.50;99.90
10042;DHT22;5061;49.068;12.058;2023-03-21T02:50:30;7.50;99.90
10042;DHT22;5061;49.068;12.058;2023-03-21T02:53:54;7.50;99.90
10042;DHT22;5061;49.068;12.058;2023-03-21T02:57:18;7.50;99.90
10042;DHT22;5061;49.068;12.058;2023-03-21T03:00:40;7.50;99.90
10042;DHT22;5061;49.068;12.058;2023-03-21T03:04:03;7.50;99.90
10042;DHT22;5061;49.068;12.058;2023-03-21T03:11:28;7.40;99.90
10042;DHT22;5061;49.068;12.058;2023-03-21T03:25:04;7.30;99.90
10042;DHT22;5061;49.068;12.058;2023-03-21T03:28:30;7.30;99.90
10042;DHT22;5061;49.068;12.058;2023-03-21T03:31:56;7.30;99.90
10042;DHT22;5061;49.068;12.058;2023-03-21T03:35:20;7.30;99.90
10042;DHT22;5061;49.068;12.058;2023-03-21T03:38:43;7.40;99.90
10042;DHT22;5061;49.068;12.058;2023-03-21T03:42:18;7.30;99.90
10042;DHT22;5061;49.068;12.058;2023-03-21T03:45:49;7.30;99.90
10042;DHT22;5061;49.068;12.058;2023-03-21T03:49:35;7.30;99.90
10042;DHT22;5061;49.068;12.058;2023-03-21T03:53:09;7.30;99.90
10042;DHT22;5061;49.068;12.058;2023-03-21T03:56:34;7.30;99.90
10042;DHT22;5061;49.068;12.058;2023-03-21T03:59:56;7.20;99.90
10042;DHT22;5061;49.068;12.058;2023-03-21T04:03:17;7.20;99.90
10042;DHT22;5061;49.068;12.058;2023-03-21T04:06:38;7.20;99.90
10042;DHT22;5061;49.068;12.058;2023-03-21T04:09:59;7.20;99.90
10042;DHT22;5061;49.068;12.058;2023-03-21T04:13:19;7.20;99.90
10042;DHT22;5061;49.068;12.058;2023-03-21T04:16:40;7.20;99.90
10042;DHT22;5061;49.068;12.058;2023-03-21T04:20:00;7.10;99.90
10042;DHT22;5061;49.068;12.058;2023-03-21T04:23:21;7.10;99.90
10042;DHT22;5061;49.068;12.058;2023-03-21T04:26:42;7.20;99.90
10042;DHT22;5061;49.068;12.058;2023-03-21T04:30:04;7.20;99.90
10042;DHT22;5061;49.068;12.058;2023-03-21T04:33:25;7.20;99.90
10042;DHT22;5061;49.068;12.058;2023-03-21T04:36:46;7.20;99.90
10042;DHT22;5061;49.068;12.058;2023-03-21T04:40:07;7.20;99.90
10042;DHT22;5061;49.068;12.058;2023-03-21T04:43:27;7.20;99.90
10042;DHT22;5061;49.068;12.058;2023-03-21T04:46:48;7.30;99.90
10042;DHT22;5061;49.068;12.058;2023-03-21T04:50:10;7.20;99.90
10042;DHT22;5061;49.068;12.058;2023-03-21T04:53:32;7.20;99.90
10042;DHT22;5061;49.068;12.058;2023-03-21T04:56:53;7.30;99.90
10042;DHT22;5061;49.068;12.058;2023-03-21T05:00:15;7.30;99.90
10042;DHT22;5061;49.068;12.058;2023-03-21T05:03:36;7.20;99.90
10042;DHT22;5061;49.068;12.058;2023-03-21T05:06:59;7.30;99.90
10042;DHT22;5061;49.068;12.058;2023-03-21T05:10:20;7.20;99.90
10042;DHT22;5061;49.068;12.058;2023-03-21T05:13:40;7.20;99.90
10042;DHT22;5061;49.068;12.058;2023-03-21T05:17:01;7.20;99.90
10042;DHT22;5061;49.068;12.058;2023-03-21T05:20:24;7.20;99.90
10042;DHT22;5061;49.068;12.058;2023-03-21T05:23:45;7.20;99.90
10042;DHT22;5061;49.068;12.058;2023-03-21T05:27:13;7.20;99.90
10042;DHT22;5061;49.068;12.058;2023-03-21T05:30:45;7.10;99.90
10042;DHT22;5061;49.068;12.058;2023-03-21T05:34:06;7.20;99.90
10042;DHT22;5061;49.068;12.058;2023-03-21T05:37:27;7.10;99.90
10042;DHT22;5061;49.068;12.058;2023-03-21T05:40:48;7.10;99.90
10042;DHT22;5061;49.068;12.058;2023-03-21T05:44:09;7.10;99.90
10042;DHT22;5061;49.068;12.058;2023-03-21T05:47:30;7.10;99.90
10042;DHT22;5061;49.068;12.058;2023-03-21T05:50:52;7.10;99.90
10042;DHT22;5061;49.068;12.058;2023-03-21T05:54:13;7.10;99.90
10042;DHT22;5061;49.068;12.058;2023-03-21T05:57:36;7.10;99.90
10042;DHT22;5061;49.068;12.058;2023-03-21T06:00:58;7.10;99.90
10042;DHT22;5061;49.068;12.058;2023-03-21T06:04:19;7.10;99.90
10042;DHT22;5061;49.068;12.058;2023-03-21T06:07:40;7.10;99.90
10042;DHT22;5061;49.068;12.058;2023-03-21T06:11:00;7.00;99.90
10042;DHT22;5061;49.068;12.058;2023-03-21T06:14:22;7.00;99.90
10042;DHT22;5061;49.068;12.058;2023-03-21T06:17:43;7.10;99.90
10042;DHT22;5061;49.068;12.058;2023-03-21T06:21:03;7.10;99.90
10042;DHT22;5061;49.068;12.058;2023-03-21T06:24:24;7.10;99.90
10042;DHT22;5061;49.068;12.058;2023-03-21T06:27:47;7.10;99.90
10042;DHT22;5061;49.068;12.058;2023-03-21T06:31:10;7.20;99.90
10042;DHT22;5061;49.068;12.058;2023-03-21T06:34:31;7.20;99.90
10042;DHT22;5061;49.068;12.058;2023-03-21T06:37:51;7.20;99.90
10042;DHT22;5061;49.068;12.058;2023-03-21T06:41:13;7.30;99.90
10042;DHT22;5061;49.068;12.058;2023-03-21T06:44:34;7.30;99.90
10042;DHT22;5061;49.068;12.058;2023-03-21T06:47:54;7.40;99.90
10042;DHT22;5061;49.068;12.058;2023-03-21T06:51:15;7.50;99.90
10042;DHT22;5061;49.068;12.058;2023-03-21T06:54:36;7.50;99.90
10042;DHT22;5061;49.068;12.058;2023-03-21T06:57:56;7.60;99.90
10042;DHT22;5061;49.068;12.058;2023-03-21T07:01:17;7.70;99.90
10042;DHT22;5061;49.068;12.058;2023-03-21T07:04:37;7.70;99.90
10042;DHT22;5061;49.068;12.058;2023-03-21T07:07:58;7.80;99.90
10042;DHT22;5061;49.068;12.058;2023-03-21T07:11:22;7.80;99.90
10042;DHT22;5061;49.068;12.058;2023-03-21T07:14:42;7.80;99.90
10042;DHT22;5061;49.068;12.058;2023-03-21T07:18:05;7.80;99.90
10042;DHT22;5061;49.068;12.058;2023-03-21T07:21:26;7.90;99.90
10042;DHT22;5061;49.068;12.058;2023-03-21T07:24:46;8.00;99.90
10042;DHT22;5061;49.068;12.058;2023-03-21T07:28:07;8.00;99.90
10042;DHT22;5061;49.068;12.058;2023-03-21T07:31:28;8.00;99.90
10042;DHT22;5061;49.068;12.058;2023-03-21T07:34:49;8.10;99.90
10042;DHT22;5061;49.068;12.058;2023-03-21T07:38:09;8.10;99.90
10042;DHT22;5061;49.068;12.058;2023-03-21T07:41:30;8.10;99.90
10042;DHT22;5061;49.068;12.058;2023-03-21T07:44:51;8.20;99.90
10042;DHT22;5061;49.068;12.058;2023-03-21T07:48:14;8.30;99.90
10042;DHT22;5061;49.068;12.058;2023-03-21T07:51:36;8.30;99.90
10042;DHT22;5061;49.068;12.058;2023-03-21T07:54:57;8.40;99.90
10042;DHT22;5061;49.068;12.058;2023-03-21T07:58:18;8.30;99.90
10042;DHT22;5061;49.068;12.058;2023-03-21T08:01:38;8.40;99.90
10042;DHT22;5061;49.068;12.058;2023-03-21T08:04:59;8.40;99.90
10042;DHT22;5061;49.068;12.058;2023-03-21T08:08:20;8.30;99.90
10042;DHT22;5061;49.068;12.058;2023-03-21T08:11:40;8.30;99.90
10042;DHT22;5061;49.068;12.058;2023-03-21T08:15:01;8.30;99.90
10042;DHT22;5061;49.068;12.058;2023-03-21T08:18:21;8.40;99.90
10042;DHT22;5061;49.068;12.058;2023-03-21T08:21:42;8.40;99.90
10042;DHT22;5061;49.068;12.058;2023-03-21T08:25:05;8.50;99.90
10042;DHT22;5061;49.068;12.058;2023-03-21T08:28:26;8.50;99.90
10042;DHT22;5061;49.068;12.058;2023-03-21T08:31:47;8.60;99.90
10042;DHT22;5061;49.068;12.058;2023-03-21T08:35:09;8.70;99.90
10042;DHT22;5061;49.068;12.058;2023-03-21T08:38:31;8.70;99.90
10042;DHT22;5061;49.068;12.058;2023-03-21T08:41:52;8.70;99.90
10042;DHT22;5061;49.068;12.058;2023-03-21T08:45:15;8.80;99.90
10042;DHT22;5061;49.068;12.058;2023-03-21T08:48:36;8.80;99.90
10042;DHT22;5061;49.068;12.058;2023-03-21T08:51:58;8.90;99.90
10042;DHT22;5061;49.068;12.058;2023-03-21T08:55:18;8.90;99.90
10042;DHT22;5061;49.068;12.058;2023-03-21T08:58:39;9.00;99.90
10042;DHT22;5061;49.068;12.058;2023-03-21T09:02:00;9.00;99.90
10042;DHT22;5061;49.068;12.058;2023-03-21T09:05:21;9.20;99.90
10042;DHT22;5061;49.068;12.058;2023-03-21T09:08:42;9.30;99.90
10042;DHT22;5061;49.068;12.058;2023-03-21T09:12:05;9.40;99.90
10042;DHT22;5061;49.068;12.058;2023-03-21T09:15:26;9.40;99.90
10042;DHT22;5061;49.068;12.058;2023-03-21T09:18:49;9.50;99.90
10042;DHT22;5061;49.068;12.058;2023-03-21T09:22:14;9.50;99.90
10042;DHT22;5061;49.068;12.058;2023-03-21T09:25:37;9.50;99.90
10042;DHT22;5061;49.068;12.058;2023-03-21T09:28:58;9.60;99.90
10042;DHT22;5061;49.068;12.058;2023-03-21T09:32:20;9.70;99.90
10042;DHT22;5061;49.068;12.058;2023-03-21T09:35:40;9.70;99.90
10042;DHT22;5061;49.068;12.058;2023-03-21T09:39:02;9.70;99.90
10042;DHT22;5061;49.068;12.058;2023-03-21T09:42:45;9.70;99.90
10042;DHT22;5061;49.068;12.058;2023-03-21T09:46:21;9.80;99.90
10042;DHT22;5061;49.068;12.058;2023-03-21T09:49:57;9.90;99.90
10042;DHT22;5061;49.068;12.058;2023-03-21T09:53:31;10.00;99.90
10042;DHT22;5061;49.068;12.058;2023-03-21T09:56:55;10.10;99.90
10042;DHT22;5061;49.068;12.058;2023-03-21T10:00:25;10.10;99.90
10042;DHT22;5061;49.068;12.058;2023-03-21T10:03:47;10.10;99.90
10042;DHT22;5061;49.068;12.058;2023-03-21T10:07:13;10.10;99.90
10042;DHT22;5061;49.068;12.058;2023-03-21T10:10:43;10.20;99.90
10042;DHT22;5061;49.068;12.058;2023-03-21T10:14:23;10.20;99.90
10042;DHT22;5061;49.068;12.058;2023-03-21T10:17:54;10.30;99.90
10042;DHT22;5061;49.068;12.058;2023-03-21T10:21:26;10.30;99.90
10042;DHT22;5061;49.068;12.058;2023-03-21T10:24:47;10.40;99.90
10042;DHT22;5061;49.068;12.058;2023-03-21T10:28:17;10.40;99.90
10042;DHT22;5061;49.068;12.058;2023-03-21T10:31:41;10.40;99.90
10042;DHT22;5061;49.068;12.058;2023-03-21T10:35:02;10.50;99.90
10042;DHT22;5061;49.068;12.058;2023-03-21T10:38:24;10.60;99.90
10042;DHT22;5061;49.068;12.058;2023-03-21T10:41:46;10.60;99.90
10042;DHT22;5061;49.068;12.058;2023-03-21T10:45:16;10.60;99.90
10042;DHT22;5061;49.068;12.058;2023-03-21T10:48:41;10.70;99.90
10042;DHT22;5061;49.068;12.058;2023-03-21T10:52:08;10.70;99.90
10042;DHT22;5061;49.068;12.058;2023-03-21T10:55:33;10.80;99.90
10042;DHT22;5061;49.068;12.058;2023-03-21T10:58:57;10.80;99.90
10042;DHT22;5061;49.068;12.058;2023-03-21T11:02:24;10.90;99.90
10042;DHT22;5061;49.068;12.058;2023-03-21T11:05:45;11.00;99.90
10042;DHT22;5061;49.068;12.058;2023-03-21T11:09:15;11.00;99.90
10042;DHT22;5061;49.068;12.058;2023-03-21T11:12:41;11.10;99.90
10042;DHT22;5061;49.068;12.058;2023-03-21T11:16:11;11.20;99.90
10042;DHT22;5061;49.068;12.058;2023-03-21T11:19:37;11.30;99.90
10042;DHT22;5061;49.068;12.058;2023-03-21T11:22:58;11.30;99.90
10042;DHT22;5061;49.068;12.058;2023-03-21T11:26:30;11.30;99.90
10042;DHT22;5061;49.068;12.058;2023-03-21T11:29:51;11.30;99.90
10042;DHT22;5061;49.068;12.058;2023-03-21T11:33:12;11.50;99.90
10042;DHT22;5061;49.068;12.058;2023-03-21T11:36:36;11.50;99.90
10042;DHT22;5061;49.068;12.058;2023-03-21T11:43:50;11.60;99.90
10042;DHT22;5061;49.068;12.058;2023-03-21T11:47:11;11.70;99.90
10042;DHT22;5061;49.068;12.058;2023-03-21T11:50:33;11.80;99.90
10042;DHT22;5061;49.068;12.058;2023-03-21T11:54:16;11.80;99.90
10042;DHT22;5061;49.068;12.058;2023-03-21T11:57:57;11.90;99.90
10042;DHT22;5061;49.068;12.058;2023-03-21T12:05:06;12.20;99.90
10042;DHT22;5061;49.068;12.058;2023-03-21T12:09:05;12.30;99.90
10042;DHT22;5061;49.068;12.058;2023-03-21T12:12:59;12.50;99.90
10042;DHT22;5061;49.068;12.058;2023-03-21T12:16:38;12.60;99.90
10042;DHT22;5061;49.068;12.058;2023-03-21T12:30:48;13.40;99.90
10042;DHT22;5061;49.068;12.058;2023-03-21T12:34:17;13.60;99.90
10042;DHT22;5061;49.068;12.058;2023-03-21T12:44:32;14.20;99.90
10042;DHT22;5061;49.068;12.058;2023-03-21T12:48:24;14.30;99.90
10042;DHT22;5061;49.068;12.058;2023-03-21T12:51:50;14.50;99.90
10042;DHT22;5061;49.068;12.058;2023-03-21T12:55:21;14.70;99.90
10042;DHT22;5061;49.068;12.058;2023-03-21T12:58:51;14.90;99.90
10042;DHT22;5061;49.068;12.058;2023-03-21T13:05:54;15.20;99.90
10042;DHT22;5061;49.068;12.058;2023-03-21T13:09:26;15.30;99.90
10042;DHT22;5061;49.068;12.058;2023-03-21T13:12:57;15.60;99.90
10042;DHT22;5061;49.068;12.058;2023-03-21T13:16:32;15.70;99.90
10042;DHT22;5061;49.068;12.058;2023-03-21T13:20:07;15.90;99.90
10042;DHT22;5061;49.068;12.058;2023-03-21T13:23:35;16.10;99.90
10042;DHT22;5061;49.068;12.058;2023-03-21T13:30:45;16.40;99.90
10042;DHT22;5061;49.068;12.058;2023-03-21T13:34:08;16.50;99.90
10042;DHT22;5061;49.068;12.058;2023-03-21T13:37:33;16.60;99.90
10042;DHT22;5061;49.068;12.058;2023-03-21T13:41:04;16.70;99.90
10042;DHT22;5061;49.068;12.058;2023-03-21T13:44:42;16.70;99.90
10042;DHT22;5061;49.068;12.058;2023-03-21T13:55:35;16.60;99.90
10042;DHT22;5061;49.068;12.058;2023-03-21T13:59:01;16.70;99.90
10042;DHT22;5061;49.068;12.058;2023-03-21T14:02:34;16.80;99.90
10042;DHT22;5061;49.068;12.058;2023-03-21T14:05:55;16.70;99.90
10042;DHT22;5061;49.068;12.058;2023-03-21T14:09:28;16.70;99.90
10042;DHT22;5061;49.068;12.058;2023-03-21T14:12:50;16.80;99.90
10042;DHT22;5061;49.068;12.058;2023-03-21T14:16:14;16.90;99.90
10042;DHT22;5061;49.068;12.058;2023-03-21T14:19:36;17.00;99.90
10042;DHT22;5061;49.068;12.058;2023-03-21T14:22:58;17.10;99.90
10042;DHT22;5061;49.068;12.058;2023-03-21T14:26:18;17.10;99.90
10042;DHT22;5061;49.068;12.058;2023-03-21T14:29:39;17.20;99.90
10042;DHT22;5061;49.068;12.058;2023-03-21T14:36:40;17.40;99.90
10042;DHT22;5061;49.068;12.058;2023-03-21T14:40:04;17.30;99.90
10042;DHT22;5061;49.068;12.058;2023-03-21T14:43:28;17.20;99.90
10042;DHT22;5061;49.068;12.058;2023-03-21T14:47:18;17.10;99.90
10042;DHT22;5061;49.068;12.058;2023-03-21T14:50:51;17.00;99.90
10042;DHT22;5061;49.068;12.058;2023-03-21T14:54:16;17.00;99.90
10042;DHT22;5061;49.068;12.058;2023-03-21T14:57:37;17.10;99.90
10042;DHT22;5061;49.068;12.058;2023-03-21T15:01:02;17.20;99.90
10042;DHT22;5061;49.068;12.058;2023-03-21T15:04:24;17.30;99.90
10042;DHT22;5061;49.068;12.058;2023-03-21T15:11:49;17.30;99.90
10042;DHT22;5061;49.068;12.058;2023-03-21T15:15:13;17.30;99.90
10042;DHT22;5061;49.068;12.058;2023-03-21T15:18:37;17.20;99.90
10042;DHT22;5061;49.068;12.058;2023-03-21T15:22:28;17.10;99.90
10042;DHT22;5061;49.068;12.058;2023-03-21T15:25:51;17.10;99.90
10042;DHT22;5061;49.068;12.058;2023-03-21T15:29:14;16.90;99.90
10042;DHT22;5061;49.068;12.058;2023-03-21T15:32:35;16.80;99.90
10042;DHT22;5061;49.068;12.058;2023-03-21T15:35:57;16.70;99.90
10042;DHT22;5061;49.068;12.058;2023-03-21T15:39:19;16.60;99.90
10042;DHT22;5061;49.068;12.058;2023-03-21T15:42:41;16.60;99.90
10042;DHT22;5061;49.068;12.058;2023-03-21T15:46:01;16.40;99.90
10042;DHT22;5061;49.068;12.058;2023-03-21T15:49:33;16.30;99.90
10042;DHT22;5061;49.068;12.058;2023-03-21T15:52:55;16.20;99.90
10042;DHT22;5061;49.068;12.058;2023-03-21T15:56:17;16.00;99.90
10042;DHT22;5061;49.068;12.058;2023-03-21T15:59:41;15.90;99.90
10042;DHT22;5061;49.068;12.058;2023-03-21T16:03:13;15.80;99.90
10042;DHT22;5061;49.068;12.058;2023-03-21T16:06:49;15.70;99.90
10042;DHT22;5061;49.068;12.058;2023-03-21T16:10:31;15.60;99.90
10042;DHT22;5061;49.068;12.058;2023-03-21T16:13:53;15.50;99.90
10042;DHT22;5061;49.068;12.058;2023-03-21T16:20:47;15.30;99.90
10042;DHT22;5061;49.068;12.058;2023-03-21T16:24:10;15.20;99.90
10042;DHT22;5061;49.068;12.058;2023-03-21T16:27:31;15.10;99.90
10042;DHT22;5061;49.068;12.058;2023-03-21T16:30:52;15.00;99.90
10042;DHT22;5061;49.068;12.058;2023-03-21T16:34:13;14.90;99.90
10042;DHT22;5061;49.068;12.058;2023-03-21T16:37:34;14.80;99.90
10042;DHT22;5061;49.068;12.058;2023-03-21T16:40:55;14.70;99.90
10042;DHT22;5061;49.068;12.058;2023-03-21T16:44:16;14.60;99.90
10042;DHT22;5061;49.068;12.058;2023-03-21T16:47:36;14.50;99.90
10042;DHT22;5061;49.068;12.058;2023-03-21T16:50:57;14.50;99.90
10042;DHT22;5061;49.068;12.058;2023-03-21T16:54:18;14.40;99.90
10042;DHT22;5061;49.068;12.058;2023-03-21T16:57:39;14.30;99.90
10042;DHT22;5061;49.068;12.058;2023-03-21T17:01:00;14.10;99.90
10042;DHT22;5061;49.068;12.058;2023-03-21T17:04:21;14.10;99.90
10042;DHT22;5061;49.068;12.058;2023-03-21T17:07:43;14.00;99.90
10042;DHT22;5061;49.068;12.058;2023-03-21T17:11:04;13.90;99.90
10042;DHT22;5061;49.068;12.058;2023-03-21T17:14:28;13.80;99.90
10042;DHT22;5061;49.068;12.058;2023-03-21T17:17:49;13.70;99.90
10042;DHT22;5061;49.068;12.058;2023-03-21T17:21:23;13.60;99.90
10042;DHT22;5061;49.068;12.058;2023-03-21T17:24:43;13.40;99.90
10042;DHT22;5061;49.068;12.058;2023-03-21T17:28:04;13.40;99.90
10042;DHT22;5061;49.068;12.058;2023-03-21T17:31:26;13.30;99.90
10042;DHT22;5061;49.068;12.058;2023-03-21T17:34:47;13.30;99.90
10042;DHT22;5061;49.068;12.058;2023-03-21T17:38:16;13.20;99.90
10042;DHT22;5061;49.068;12.058;2023-03-21T17:41:40;13.10;99.90
10042;DHT22;5061;49.068;12.058;2023-03-21T17:45:00;13.00;99.90
10042;DHT22;5061;49.068;12.058;2023-03-21T17:48:21;13.00;99.90
10042;DHT22;5061;49.068;12.058;2023-03-21T17:51:42;13.00;99.90
10042;DHT22;5061;49.068;12.058;2023-03-21T17:55:03;12.90;99.90
10042;DHT22;5061;49.068;12.058;2023-03-21T17:58:24;12.90;99.90
10042;DHT22;5061;49.068;12.058;2023-03-21T18:01:45;12.80;99.90
10042;DHT22;5061;49.068;12.058;2023-03-21T18:05:07;12.80;99.90
10042;DHT22;5061;49.068;12.058;2023-03-21T18:08:28;12.70;99.90
10042;DHT22;5061;49.068;12.058;2023-03-21T18:11:49;12.70;99.90
10042;DHT22;5061;49.068;12.058;2023-03-21T18:15:10;12.60;99.90
10042;DHT22;5061;49.068;12.058;2023-03-21T18:18:31;12.50;99.90
10042;DHT22;5061;49.068;12.058;2023-03-21T18:21:52;12.50;99.90
10042;DHT22;5061;49.068;12.058;2023-03-21T18:25:14;12.40;99.90
10042;DHT22;5061;49.068;12.058;2023-03-21T18:28:37;12.30;99.90
10042;DHT22;5061;49.068;12.058;2023-03-21T18:31:58;12.20;99.90
10042;DHT22;5061;49.068;12.058;2023-03-21T18:35:20;12.20;99.90
10042;DHT22;5061;49.068;12.058;2023-03-21T18:38:41;12.10;99.90
10042;DHT22;5061;49.068;12.058;2023-03-21T18:42:05;12.00;99.90
10042;DHT22;5061;49.068;12.058;2023-03-21T18:45:28;12.00;99.90
10042;DHT22;5061;49.068;12.058;2023-03-21T18:48:52;11.90;99.90
10042;DHT22;5061;49.068;12.058;2023-03-21T18:52:20;11.90;99.90
10042;DHT22;5061;49.068;12.058;2023-03-21T18:55:42;11.80;99.90
10042;DHT22;5061;49.068;12.058;2023-03-21T18:59:06;11.80;99.90
10042;DHT22;5061;49.068;12.058;2023-03-21T19:02:31;11.70;99.90
10042;DHT22;5061;49.068;12.058;2023-03-21T19:05:57;11.70;99.90
10042;DHT22;5061;49.068;12.058;2023-03-21T19:09:19;11.70;99.90
10042;DHT22;5061;49.068;12.058;2023-03-21T19:12:40;11.70;99.90
10042;DHT22;5061;49.068;12.058;2023-03-21T19:16:01;11.70;99.90
10042;DHT22;5061;49.068;12.058;2023-03-21T19:19:22;11.60;99.90
10042;DHT22;5061;49.068;12.058;2023-03-21T19:22:43;11.60;99.90
10042;DHT22;5061;49.068;12.058;2023-03-21T19:26:04;11.60;99.90
10042;DHT22;5061;49.068;12.058;2023-03-21T19:29:25;11.60;99.90
10042;DHT22;5061;49.068;12.058;2023-03-21T19:32:46;11.60;99.90
10042;DHT22;5061;49.068;12.058;2023-03-21T19:36:07;11.50;99.90
10042;DHT22;5061;49.068;12.058;2023-03-21T19:39:28;11.50;99.90
10042;DHT22;5061;49.068;12.058;2023-03-21T19:42:49;11.40;99.90
10042;DHT22;5061;49.068;12.058;2023-03-21T19:46:10;11.40;99.90
10042;DHT22;5061;49.068;12.058;2023-03-21T19:49:34;11.40;99.90
10042;DHT22;5061;49.068;12.058;2023-03-21T19:52:55;11.40;99.90
10042;DHT22;5061;49.068;12.058;2023-03-21T19:56:16;11.40;99.90
10042;DHT22;5061;49.068;12.058;2023-03-21T19:59:37;11.40;99.90
10042;DHT22;5061;49.068;12.058;2023-03-21T20:02:58;11.30;99.90
10042;DHT22;5061;49.068;12.058;2023-03-21T20:06:19;11.30;99.90
10042;DHT22;5061;49.068;12.058;2023-03-21T20:09:41;11.30;99.90
10042;DHT22;5061;49.068;12.058;2023-03-21T20:13:02;11.20;99.90
10042;DHT22;5061;49.068;12.058;2023-03-21T20:16:22;11.20;99.90
10042;DHT22;5061;49.068;12.058;2023-03-21T20:19:43;11.20;99.90
10042;DHT22;5061;49.068;12.058;2023-03-21T20:23:04;11.20;99.90
10042;DHT22;5061;49.068;12.058;2023-03-21T20:26:25;11.20;99.90
10042;DHT22;5061;49.068;12.058;2023-03-21T20:29:46;11.20;99.90
10042;DHT22;5061;49.068;12.058;2023-03-21T20:33:06;11.20;99.90
10042;DHT22;5061;49.068;12.058;2023-03-21T20:36:27;11.10;99.90
10042;DHT22;5061;49.068;12.058;2023-03-21T20:39:48;11.10;99.90
10042;DHT22;5061;49.068;12.058;2023-03-21T20:43:08;11.10;99.90
10042;DHT22;5061;49.068;12.058;2023-03-21T20:46:29;11.10;99.90
10042;DHT22;5061;49.068;12.058;2023-03-21T20:49:50;11.00;99.90
10042;DHT22;5061;49.068;12.058;2023-03-21T20:53:10;11.00;99.90
10042;DHT22;5061;49.068;12.058;2023-03-21T20:56:31;10.90;99.90
10042;DHT22;5061;49.068;12.058;2023-03-21T20:59:56;10.90;99.90
10042;DHT22;5061;49.068;12.058;2023-03-21T21:03:17;10.80;99.90
10042;DHT22;5061;49.068;12.058;2023-03-21T21:06:40;10.70;99.90
10042;DHT22;5061;49.068;12.058;2023-03-21T21:10:03;10.70;99.90
10042;DHT22;5061;49.068;12.058;2023-03-21T21:13:25;10.70;99.90
10042;DHT22;5061;49.068;12.058;2023-03-21T21:16:46;10.70;99.90
10042;DHT22;5061;49.068;12.058;2023-03-21T21:20:08;10.60;99.90
10042;DHT22;5061;49.068;12.058;2023-03-21T21:23:39;10.60;99.90
10042;DHT22;5061;49.068;12.058;2023-03-21T21:27:00;10.50;99.90
10042;DHT22;5061;49.068;12.058;2023-03-21T21:30:21;10.50;99.90
10042;DHT22;5061;49.068;12.058;2023-03-21T21:33:42;10.50;99.90
10042;DHT22;5061;49.068;12.058;2023-03-21T21:37:09;10.50;99.90
10042;DHT22;5061;49.068;12.058;2023-03-21T21:40:30;10.50;99.90
10042;DHT22;5061;49.068;12.058;2023-03-21T21:43:50;10.40;99.90
10042;DHT22;5061;49.068;12.058;2023-03-21T21:47:11;10.40;99.90
10042;DHT22;5061;49.068;12.058;2023-03-21T21:50:32;10.40;99.90
10042;DHT22;5061;49.068;12.058;2023-03-21T21:53:56;10.40;99.90
10042;DHT22;5061;49.068;12.058;2023-03-21T21:57:17;10.40;99.90
10042;DHT22;5061;49.068;12.058;2023-03-21T22:00:42;10.40;99.90
10042;DHT22;5061;49.068;12.058;2023-03-21T22:04:03;10.40;99.90
10042;DHT22;5061;49.068;12.058;2023-03-21T22:07:29;10.50;99.90
10042;DHT22;5061;49.068;12.058;2023-03-21T22:10:51;10.50;99.90
10042;DHT22;5061;49.068;12.058;2023-03-21T22:14:12;10.50;99.90
10042;DHT22;5061;49.068;12.058;2023-03-21T22:17:33;10.50;99.90
10042;DHT22;5061;49.068;12.058;2023-03-21T22:20:54;10.50;99.90
10042;DHT22;5061;49.068;12.058;2023-03-21T22:24:15;10.50;99.90
10042;DHT22;5061;49.068;12.058;2023-03-21T22:27:36;10.50;99.90
10042;DHT22;5061;49.068;12.058;2023-03-21T22:30:57;10.50;99.90
10042;DHT22;5061;49.068;12.058;2023-03-21T22:34:18;10.50;99.90
10042;DHT22;5061;49.068;12.058;2023-03-21T22:37:40;10.50;99.90
10042;DHT22;5061;49.068;12.058;2023-03-21T22:41:02;10.50;99.90
10042;DHT22;5061;49.068;12.058;2023-03-21T22:44:23;10.50;99.90
10042;DHT22;5061;49.068;12.058;2023-03-21T22:47:43;10.50;99.90
10042;DHT22;5061;49.068;12.058;2023-03-21T22:51:04;10.50;99.90
10042;DHT22;5061;49.068;12.058;2023-03-21T22:54:25;10.50;99.90
10042;DHT22;5061;49.068;12.058;2023-03-21T22:57:46;10.50;99.90